sensor_id;sensor_type;location;lat;lon;timestamp;pressure;altitude;pressure_sealevel;temperature;humidity
17383;BME280;8809;51.892;8.384;2024-01-30T00:01:59;101780.13;;;5.00;100.00
17383;BME280;8809;51.892;8.384;2024-01-30T00:04:27;101771.47;;;4.99;100.00
17383;BME280;8809;51.892;8.384;2024-01-30T00:06:54;101778.31;;;4.99;100.00
17383;BME280;8809;51.892;8.384;2024-01-30T00:09:22;101774.69;;;4.97;100.00
17383;BME280;8809;51.892;8.384;2024-01-30T00:11:50;101779.88;;;4.97;100.00
17383;BME280;8809;51.892;8.384;2024-01-30T00:14:18;101773.16;;;4.99;100.00
17383;BME280;8809;51.892;8.384;2024-01-30T00:16:45;101775.59;;;4.97;100.00
17383;BME280;8809;51.892;8.384;2024-01-30T00:19:12;101777.16;;;4.95;100.00
17383;BME280;8809;51.892;8.384;2024-01-30T00:21:40;101783.50;;;4.99;100.00
17383;BME280;8809;51.892;8.384;2024-01-30T00:24:07;101775.72;;;4.99;100.00
17383;BME280;8809;51.892;8.384;2024-01-30T00:26:36;101772.88;;;4.96;100.00
17383;BME280;8809;51.892;8.384;2024-01-30T00:29:03;101770.28;;;4.96;100.00
17383;BME280;8809;51.892;8.384;2024-01-30T00:31:31;101771.72;;;4.92;100.00
17383;BME280;8809;51.892;8.384;2024-01-30T00:33:58;101768.13;;;4.90;100.00
17383;BME280;8809;51.892;8.384;2024-01-30T00:36:26;101770.56;;;4.89;100.00
17383;BME280;8809;51.892;8.384;2024-01-30T00:38:55;101766.69;;;4.83;100.00
17383;BME280;8809;51.892;8.384;2024-01-30T00:41:23;101770.03;;;4.82;100.00
17383;BME280;8809;51.892;8.384;2024-01-30T00:43:52;101772.28;;;4.78;100.00
17383;BME280;8809;51.892;8.384;2024-01-30T00:46:19;101768.00;;;4.68;100.00
17383;BME280;8809;51.892;8.384;2024-01-30T00:48:46;101770.19;;;4.74;100.00
17383;BME280;8809;51.892;8.384;2024-01-30T00:51:14;101767.47;;;4.72;100.00
17383;BME280;8809;51.892;8.384;2024-01-30T00:53:41;101770.72;;;4.70;100.00
17383;BME280;8809;51.892;8.384;2024-01-30T00:56:08;101767.25;;;4.69;100.00
17383;BME280;8809;51.892;8.384;2024-01-30T00:58:38;101772.00;;;4.65;100.00
17383;BME280;8809;51.892;8.384;2024-01-30T01:01:07;101764.38;;;4.66;100.00
17383;BME280;8809;51.892;8.384;2024-01-30T01:03:34;101767.47;;;4.62;100.00
17383;BME280;8809;51.892;8.384;2024-01-30T01:06:01;101755.25;;;4.60;100.00
17383;BME280;8809;51.892;8.384;2024-01-30T01:08:28;101750.06;;;4.60;100.00
17383;BME280;8809;51.892;8.384;2024-01-30T01:10:56;101761.31;;;4.60;100.00
17383;BME280;8809;51.892;8.384;2024-01-30T01:13:23;101759.50;;;4.59;100.00
17383;BME280;8809;51.892;8.384;2024-01-30T01:15:50;101761.94;;;4.58;100.00
17383;BME280;8809;51.892;8.384;2024-01-30T01:18:19;101760.91;;;4.56;100.00
17383;BME280;8809;51.892;8.384;2024-01-30T01:20:46;101762.22;;;4.51;100.00
17383;BME280;8809;51.892;8.384;2024-01-30T01:23:14;101762.22;;;4.51;100.00
17383;BME280;8809;51.892;8.384;2024-01-30T01:25:41;101756.91;;;4.49;100.00
17383;BME280;8809;51.892;8.384;2024-01-30T01:28:08;101756.78;;;4.47;100.00
17383;BME280;8809;51.892;8.384;2024-01-30T01:30:35;101757.56;;;4.46;100.00
17383;BME280;8809;51.892;8.384;2024-01-30T01:33:03;101761.03;;;4.47;100.00
17383;BME280;8809;51.892;8.384;2024-01-30T01:35:34;101758.19;;;4.44;100.00
17383;BME280;8809;51.892;8.384;2024-01-30T01:38:01;101757.19;;;4.42;100.00
17383;BME280;8809;51.892;8.384;2024-01-30T01:40:29;101755.09;;;4.38;100.00
17383;BME280;8809;51.892;8.384;2024-01-30T01:42:56;101745.53;;;4.37;100.00
17383;BME280;8809;51.892;8.384;2024-01-30T01:45:23;101753.44;;;4.38;100.00
17383;BME280;8809;51.892;8.384;2024-01-30T01:47:51;101748.41;;;4.50;100.00
17383;BME280;8809;51.892;8.384;2024-01-30T01:50:20;101753.69;;;4.41;100.00
17383;BME280;8809;51.892;8.384;2024-01-30T01:52:50;101752.25;;;4.35;100.00
17383;BME280;8809;51.892;8.384;2024-01-30T01:55:21;101745.19;;;4.32;100.00
17383;BME280;8809;51.892;8.384;2024-01-30T01:57:50;101747.34;;;4.28;100.00
17383;BME280;8809;51.892;8.384;2024-01-30T02:00:18;101739.59;;;4.28;100.00
17383;BME280;8809;51.892;8.384;2024-01-30T02:02:46;101736.53;;;4.32;100.00
17383;BME280;8809;51.892;8.384;2024-01-30T02:05:14;101731.84;;;4.28;100.00
17383;BME280;8809;51.892;8.384;2024-01-30T02:07:42;101730.19;;;4.28;100.00
17383;BME280;8809;51.892;8.384;2024-01-30T02:10:11;101728.38;;;4.27;100.00
17383;BME280;8809;51.892;8.384;2024-01-30T02:12:40;101732.34;;;4.24;100.00
17383;BME280;8809;51.892;8.384;2024-01-30T02:15:07;101722.84;;;4.23;100.00
17383;BME280;8809;51.892;8.384;2024-01-30T02:17:35;101727.88;;;4.21;100.00
17383;BME280;8809;51.892;8.384;2024-01-30T02:20:02;101719.84;;;4.18;100.00
17383;BME280;8809;51.892;8.384;2024-01-30T02:22:33;101722.44;;;4.18;100.00
17383;BME280;8809;51.892;8.384;2024-01-30T02:25:01;101727.59;;;4.18;100.00
17383;BME280;8809;51.892;8.384;2024-01-30T02:27:30;101721.66;;;4.19;100.00
17383;BME280;8809;51.892;8.384;2024-01-30T02:29:57;101726.69;;;4.18;100.00
17383;BME280;8809;51.892;8.384;2024-01-30T02:32:24;101725.66;;;4.16;100.00
17383;BME280;8809;51.892;8.384;2024-01-30T02:34:52;101717.66;;;4.13;100.00
17383;BME280;8809;51.892;8.384;2024-01-30T02:37:18;101715.09;;;4.13;100.00
17383;BME280;8809;51.892;8.384;2024-01-30T02:39:47;101710.69;;;4.12;100.00
17383;BME280;8809;51.892;8.384;2024-01-30T02:42:15;101713.91;;;4.09;100.00
17383;BME280;8809;51.892;8.384;2024-01-30T02:44:42;101704.06;;;4.05;100.00
17383;BME280;8809;51.892;8.384;2024-01-30T02:47:09;101703.44;;;3.97;100.00
17383;BME280;8809;51.892;8.384;2024-01-30T02:49:36;101704.06;;;4.05;100.00
17383;BME280;8809;51.892;8.384;2024-01-30T02:52:04;101698.00;;;4.04;100.00
17383;BME280;8809;51.892;8.384;2024-01-30T02:54:32;101695.69;;;4.07;100.00
17383;BME280;8809;51.892;8.384;2024-01-30T02:57:00;101693.13;;;4.07;100.00
17383;BME280;8809;51.892;8.384;2024-01-30T02:59:27;101690.53;;;4.07;100.00
17383;BME280;8809;51.892;8.384;2024-01-30T03:01:55;101689.75;;;4.08;100.00
17383;BME280;8809;51.892;8.384;2024-01-30T03:04:22;101679.28;;;4.07;100.00
17383;BME280;8809;51.892;8.384;2024-01-30T03:06:49;101679.28;;;3.97;100.00
17383;BME280;8809;51.892;8.384;2024-01-30T03:09:16;101680.75;;;4.03;100.00
17383;BME280;8809;51.892;8.384;2024-01-30T03:11:44;101682.78;;;4.07;100.00
17383;BME280;8809;51.892;8.384;2024-01-30T03:14:12;101680.34;;;4.09;100.00
17383;BME280;8809;51.892;8.384;2024-01-30T03:16:40;101677.88;;;4.10;100.00
17383;BME280;8809;51.892;8.384;2024-01-30T03:19:07;101678.03;;;4.12;100.00
17383;BME280;8809;51.892;8.384;2024-01-30T03:21:34;101675.44;;;4.02;100.00
17383;BME280;8809;51.892;8.384;2024-01-30T03:24:02;101668.47;;;4.11;100.00
17383;BME280;8809;51.892;8.384;2024-01-30T03:26:30;101678.78;;;4.11;100.00
17383;BME280;8809;51.892;8.384;2024-01-30T03:28:58;101670.38;;;4.14;100.00
17383;BME280;8809;51.892;8.384;2024-01-30T03:31:26;101667.78;;;4.14;100.00
17383;BME280;8809;51.892;8.384;2024-01-30T03:33:53;101662.63;;;4.14;100.00
17383;BME280;8809;51.892;8.384;2024-01-30T03:36:20;101663.44;;;4.13;100.00
17383;BME280;8809;51.892;8.384;2024-01-30T03:38:47;101656.69;;;4.15;100.00
17383;BME280;8809;51.892;8.384;2024-01-30T03:41:15;101652.44;;;4.15;100.00
17383;BME280;8809;51.892;8.384;2024-01-30T03:43:42;101651.78;;;4.18;100.00
17383;BME280;8809;51.892;8.384;2024-01-30T03:46:09;101645.59;;;4.16;100.00
17383;BME280;8809;51.892;8.384;2024-01-30T03:48:39;101650.75;;;4.16;100.00
17383;BME280;8809;51.892;8.384;2024-01-30T03:51:07;101652.31;;;4.14;100.00
17383;BME280;8809;51.892;8.384;2024-01-30T03:53:34;101646.50;;;4.16;100.00
17383;BME280;8809;51.892;8.384;2024-01-30T03:56:02;101647.94;;;4.13;100.00
17383;BME280;8809;51.892;8.384;2024-01-30T03:58:30;101647.13;;;4.14;100.00
17383;BME280;8809;51.892;8.384;2024-01-30T04:00:57;101640.19;;;4.13;100.00
17383;BME280;8809;51.892;8.384;2024-01-30T04:03:24;101651.44;;;4.13;100.00
17383;BME280;8809;51.892;8.384;2024-01-30T04:05:53;101645.38;;;4.13;100.00
17383;BME280;8809;51.892;8.384;2024-01-30T04:08:21;101635.94;;;4.13;100.00
17383;BME280;8809;51.892;8.384;2024-01-30T04:10:49;101640.19;;;4.13;100.00
17383;BME280;8809;51.892;8.384;2024-01-30T04:13:16;101633.09;;;4.10;100.00
17383;BME280;8809;51.892;8.384;2024-01-30T04:15:43;101632.19;;;4.09;100.00
17383;BME280;8809;51.892;8.384;2024-01-30T04:18:10;101630.38;;;4.08;100.00
17383;BME280;8809;51.892;8.384;2024-01-30T04:20:38;101634.75;;;4.09;100.00
17383;BME280;8809;51.892;8.384;2024-01-30T04:23:08;101628.56;;;4.07;100.00
17383;BME280;8809;51.892;8.384;2024-01-30T04:25:38;101624.03;;;4.05;100.00
17383;BME280;8809;51.892;8.384;2024-01-30T04:28:05;101629.34;;;4.06;100.00
17383;BME280;8809;51.892;8.384;2024-01-30T04:30:33;101624.94;;;4.05;100.00
17383;BME280;8809;51.892;8.384;2024-01-30T04:33:00;101626.63;;;4.05;100.00
17383;BME280;8809;51.892;8.384;2024-01-30T04:35:28;101628.44;;;4.06;100.00
17383;BME280;8809;51.892;8.384;2024-01-30T04:37:55;101620.56;;;4.04;100.00
17383;BME280;8809;51.892;8.384;2024-01-30T04:40:25;101623.94;;;4.03;100.00
17383;BME280;8809;51.892;8.384;2024-01-30T04:42:52;101633.22;;;4.01;100.00
17383;BME280;8809;51.892;8.384;2024-01-30T04:45:20;101630.25;;;4.07;100.00
17383;BME280;8809;51.892;8.384;2024-01-30T04:47:47;101629.19;;;4.05;100.00
17383;BME280;8809;51.892;8.384;2024-01-30T04:50:15;101628.56;;;4.07;100.00
17383;BME280;8809;51.892;8.384;2024-01-30T04:52:42;101631.00;;;4.06;100.00
17383;BME280;8809;51.892;8.384;2024-01-30T04:55:12;101626.88;;;4.08;100.00
17383;BME280;8809;51.892;8.384;2024-01-30T04:57:40;101623.53;;;4.09;100.00
17383;BME280;8809;51.892;8.384;2024-01-30T05:00:09;101630.78;;;4.03;100.00
17383;BME280;8809;51.892;8.384;2024-01-30T05:02:36;101627.28;;;4.02;100.00
17383;BME280;8809;51.892;8.384;2024-01-30T05:05:05;101632.47;;;4.02;100.00
17383;BME280;8809;51.892;8.384;2024-01-30T05:07:32;101627.28;;;4.02;100.00
17383;BME280;8809;51.892;8.384;2024-01-30T05:10:00;101630.25;;;4.07;100.00
17383;BME280;8809;51.892;8.384;2024-01-30T05:12:27;101626.88;;;3.98;100.00
17383;BME280;8809;51.892;8.384;2024-01-30T05:14:56;101626.25;;;4.00;100.00
17383;BME280;8809;51.892;8.384;2024-01-30T05:17:23;101629.88;;;3.92;100.00
17383;BME280;8809;51.892;8.384;2024-01-30T05:19:50;101619.00;;;3.96;100.00
17383;BME280;8809;51.892;8.384;2024-01-30T05:22:17;101621.47;;;3.95;100.00
17383;BME280;8809;51.892;8.384;2024-01-30T05:24:45;101624.94;;;3.85;100.00
17383;BME280;8809;51.892;8.384;2024-01-30T05:27:12;101630.00;;;3.94;100.00
17383;BME280;8809;51.892;8.384;2024-01-30T05:29:40;101617.59;;;4.00;100.00
17383;BME280;8809;51.892;8.384;2024-01-30T05:32:08;101626.00;;;3.97;100.00
17383;BME280;8809;51.892;8.384;2024-01-30T05:34:36;101619.78;;;3.95;100.00
17383;BME280;8809;51.892;8.384;2024-01-30T05:37:03;101617.75;;;4.01;100.00
17383;BME280;8809;51.892;8.384;2024-01-30T05:39:30;101616.06;;;4.02;100.00
17383;BME280;8809;51.892;8.384;2024-01-30T05:41:58;101612.72;;;4.03;100.00
17383;BME280;8809;51.892;8.384;2024-01-30T05:44:25;101620.31;;;4.01;100.00
17383;BME280;8809;51.892;8.384;2024-01-30T05:46:52;101615.66;;;4.07;100.00
17383;BME280;8809;51.892;8.384;2024-01-30T05:49:21;101611.41;;;3.98;100.00
17383;BME280;8809;51.892;8.384;2024-01-30T05:51:49;101615.53;;;3.96;100.00
17383;BME280;8809;51.892;8.384;2024-01-30T05:54:16;101621.09;;;4.00;100.00
17383;BME280;8809;51.892;8.384;2024-01-30T05:56:43;101611.81;;;4.02;100.00
17383;BME280;8809;51.892;8.384;2024-01-30T05:59:10;101606.38;;;3.99;100.00
17383;BME280;8809;51.892;8.384;2024-01-30T06:01:38;101606.88;;;3.95;100.00
17383;BME280;8809;51.892;8.384;2024-01-30T06:04:05;101606.88;;;3.95;100.00
17383;BME280;8809;51.892;8.384;2024-01-30T06:06:34;101607.78;;;3.96;100.00
17383;BME280;8809;51.892;8.384;2024-01-30T06:09:02;101602.13;;;4.00;100.00
17383;BME280;8809;51.892;8.384;2024-01-30T06:11:29;101607.78;;;4.06;100.00
17383;BME280;8809;51.892;8.384;2024-01-30T06:13:57;101612.44;;;4.00;100.00
17383;BME280;8809;51.892;8.384;2024-01-30T06:16:24;101611.03;;;4.03;100.00
17383;BME280;8809;51.892;8.384;2024-01-30T06:18:55;101610.91;;;3.92;100.00
17383;BME280;8809;51.892;8.384;2024-01-30T06:21:23;101606.88;;;3.95;100.00
17383;BME280;8809;51.892;8.384;2024-01-30T06:23:52;101608.44;;;3.93;100.00
17383;BME280;8809;51.892;8.384;2024-01-30T06:26:19;101608.19;;;4.00;100.00
17383;BME280;8809;51.892;8.384;2024-01-30T06:28:46;101602.75;;;3.97;100.00
17383;BME280;8809;51.892;8.384;2024-01-30T06:31:13;101598.22;;;3.95;100.00
17383;BME280;8809;51.892;8.384;2024-01-30T06:33:49;101598.13;;;3.93;100.00
17383;BME280;8809;51.892;8.384;2024-01-30T06:36:16;101601.47;;;3.92;100.00
17383;BME280;8809;51.892;8.384;2024-01-30T06:38:43;101599.53;;;3.90;100.00
17383;BME280;8809;51.892;8.384;2024-01-30T06:41:12;101604.56;;;3.88;100.00
17383;BME280;8809;51.892;8.384;2024-01-30T06:43:39;101601.22;;;3.89;100.00
17383;BME280;8809;51.892;8.384;2024-01-30T06:46:07;101603.03;;;4.00;100.00
17383;BME280;8809;51.892;8.384;2024-01-30T06:48:34;101604.16;;;4.04;100.00
17383;BME280;8809;51.892;8.384;2024-01-30T06:51:02;101603.78;;;3.99;100.00
17383;BME280;8809;51.892;8.384;2024-01-30T06:53:30;101602.75;;;3.97;100.00
17383;BME280;8809;51.892;8.384;2024-01-30T06:55:57;101603.78;;;4.09;100.00
17383;BME280;8809;51.892;8.384;2024-01-30T06:58:27;101598.22;;;4.05;100.00
17383;BME280;8809;51.892;8.384;2024-01-30T07:00:58;101598.63;;;4.09;100.00
17383;BME280;8809;51.892;8.384;2024-01-30T07:03:25;101606.63;;;4.23;100.00
17383;BME280;8809;51.892;8.384;2024-01-30T07:05:52;101604.41;;;4.17;100.00
17383;BME280;8809;51.892;8.384;2024-01-30T07:08:19;101600.28;;;4.19;100.00
17383;BME280;8809;51.892;8.384;2024-01-30T07:10:49;101604.03;;;4.13;100.00
17383;BME280;8809;51.892;8.384;2024-01-30T07:13:16;101605.56;;;4.21;100.00
17383;BME280;8809;51.892;8.384;2024-01-30T07:15:45;101604.25;;;4.36;100.00
17383;BME280;8809;51.892;8.384;2024-01-30T07:18:13;101602.19;;;4.32;100.00
17383;BME280;8809;51.892;8.384;2024-01-30T07:20:40;101607.38;;;4.32;100.00
17383;BME280;8809;51.892;8.384;2024-01-30T07:23:11;101604.78;;;4.32;100.00
17383;BME280;8809;51.892;8.384;2024-01-30T07:25:39;101602.97;;;4.31;100.00
17383;BME280;8809;51.892;8.384;2024-01-30T07:28:07;101607.38;;;4.32;100.00
17383;BME280;8809;51.892;8.384;2024-01-30T07:30:35;101605.78;;;4.34;100.00
17383;BME280;8809;51.892;8.384;2024-01-30T07:33:04;101603.47;;;4.37;100.00
17383;BME280;8809;51.892;8.384;2024-01-30T07:35:33;101601.28;;;4.41;100.00
17383;BME280;8809;51.892;8.384;2024-01-30T07:38:01;101605.53;;;4.41;100.00
17383;BME280;8809;51.892;8.384;2024-01-30T07:40:28;101607.56;;;4.45;100.00
17383;BME280;8809;51.892;8.384;2024-01-30T07:42:56;101605.91;;;4.45;100.00
17383;BME280;8809;51.892;8.384;2024-01-30T07:45:23;101605.09;;;4.57;100.00
17383;BME280;8809;51.892;8.384;2024-01-30T07:47:52;101608.28;;;4.64;100.00
17383;BME280;8809;51.892;8.384;2024-01-30T07:50:21;101604.59;;;4.51;100.00
17383;BME280;8809;51.892;8.384;2024-01-30T07:52:48;101606.53;;;4.43;100.00
17383;BME280;8809;51.892;8.384;2024-01-30T07:55:20;101608.09;;;4.51;100.00
17383;BME280;8809;51.892;8.384;2024-01-30T07:57:51;101613.75;;;4.57;100.00
17383;BME280;8809;51.892;8.384;2024-01-30T08:00:19;101615.00;;;4.62;100.00
17383;BME280;8809;51.892;8.384;2024-01-30T08:02:46;101605.31;;;4.70;100.00
17383;BME280;8809;51.892;8.384;2024-01-30T08:05:14;101598.59;;;4.62;100.00
17383;BME280;8809;51.892;8.384;2024-01-30T08:07:43;101602.22;;;4.64;100.00
17383;BME280;8809;51.892;8.384;2024-01-30T08:10:12;101602.72;;;4.70;100.00
17383;BME280;8809;51.892;8.384;2024-01-30T08:12:39;101603.22;;;4.76;100.00
17383;BME280;8809;51.892;8.384;2024-01-30T08:15:07;101594.25;;;4.82;100.00
17383;BME280;8809;51.892;8.384;2024-01-30T08:17:34;101593.31;;;4.92;100.00
17383;BME280;8809;51.892;8.384;2024-01-30T08:20:02;101599.63;;;4.96;100.00
17383;BME280;8809;51.892;8.384;2024-01-30T08:22:30;101602.47;;;4.99;100.00
17383;BME280;8809;51.892;8.384;2024-01-30T08:25:00;101604.50;;;5.03;100.00
17383;BME280;8809;51.892;8.384;2024-01-30T08:27:27;101604.50;;;5.03;100.00
17383;BME280;8809;51.892;8.384;2024-01-30T08:29:54;101605.41;;;5.03;100.00
17383;BME280;8809;51.892;8.384;2024-01-30T08:32:22;101608.53;;;5.21;100.00
17383;BME280;8809;51.892;8.384;2024-01-30T08:34:49;101621.19;;;5.06;100.00
17383;BME280;8809;51.892;8.384;2024-01-30T08:37:17;101617.81;;;5.07;100.00
17383;BME280;8809;51.892;8.384;2024-01-30T08:39:44;101622.38;;;5.21;100.00
17383;BME280;8809;51.892;8.384;2024-01-30T08:42:16;101621.59;;;5.22;100.00
17383;BME280;8809;51.892;8.384;2024-01-30T08:44:48;101616.97;;;5.40;100.00
17383;BME280;8809;51.892;8.384;2024-01-30T08:47:19;101619.16;;;5.57;100.00
17383;BME280;8809;51.892;8.384;2024-01-30T08:49:47;101618.31;;;5.57;100.00
17383;BME280;8809;51.892;8.384;2024-01-30T08:52:14;101622.13;;;5.62;100.00
17383;BME280;8809;51.892;8.384;2024-01-30T08:54:45;101621.94;;;5.71;100.00
17383;BME280;8809;51.892;8.384;2024-01-30T08:57:13;101623.09;;;5.74;100.00
17383;BME280;8809;51.892;8.384;2024-01-30T08:59:42;101625.59;;;5.84;100.00
17383;BME280;8809;51.892;8.384;2024-01-30T09:02:13;101626.94;;;6.13;100.00
17383;BME280;8809;51.892;8.384;2024-01-30T09:04:41;101623.25;;;6.32;100.00
17383;BME280;8809;51.892;8.384;2024-01-30T09:07:09;101627.84;;;6.37;100.00
17383;BME280;8809;51.892;8.384;2024-01-30T09:09:37;101633.16;;;6.50;100.00
17383;BME280;8809;51.892;8.384;2024-01-30T09:12:07;101628.22;;;6.53;100.00
17383;BME280;8809;51.892;8.384;2024-01-30T09:14:38;101623.47;;;6.59;100.00
17383;BME280;8809;51.892;8.384;2024-01-30T09:17:06;101629.44;;;6.69;100.00
17383;BME280;8809;51.892;8.384;2024-01-30T09:19:33;101627.28;;;6.76;100.00
17383;BME280;8809;51.892;8.384;2024-01-30T09:22:01;101632.72;;;6.90;100.00
17383;BME280;8809;51.892;8.384;2024-01-30T09:24:29;101627.28;;;6.87;100.00
17383;BME280;8809;51.892;8.384;2024-01-30T09:26:56;101633.69;;;7.04;100.00
17383;BME280;8809;51.892;8.384;2024-01-30T09:29:22;101624.97;;;7.15;100.00
17383;BME280;8809;51.892;8.384;2024-01-30T09:31:51;101630.16;;;7.27;100.00
17383;BME280;8809;51.892;8.384;2024-01-30T09:34:19;101635.31;;;7.38;100.00
17383;BME280;8809;51.892;8.384;2024-01-30T09:36:46;101633.66;;;7.52;100.00
17383;BME280;8809;51.892;8.384;2024-01-30T09:39:13;101631.78;;;7.50;100.00
17383;BME280;8809;51.892;8.384;2024-01-30T09:41:45;101633.09;;;7.56;100.00
17383;BME280;8809;51.892;8.384;2024-01-30T09:44:16;101639.19;;;7.57;100.00
17383;BME280;8809;51.892;8.384;2024-01-30T09:46:43;101632.94;;;7.66;100.00
17383;BME280;8809;51.892;8.384;2024-01-30T09:49:15;101623.47;;;7.67;100.00
17383;BME280;8809;51.892;8.384;2024-01-30T09:51:44;101628.84;;;7.95;100.00
17383;BME280;8809;51.892;8.384;2024-01-30T09:54:13;101629.19;;;8.12;100.00
17383;BME280;8809;51.892;8.384;2024-01-30T09:56:41;101636.03;;;8.24;100.00
17383;BME280;8809;51.892;8.384;2024-01-30T09:59:08;101630.06;;;8.38;100.00
17383;BME280;8809;51.892;8.384;2024-01-30T10:01:36;101632.47;;;8.48;100.00
17383;BME280;8809;51.892;8.384;2024-01-30T10:04:04;101639.97;;;8.56;100.00
17383;BME280;8809;51.892;8.384;2024-01-30T10:06:33;101634.78;;;8.43;100.00
17383;BME280;8809;51.892;8.384;2024-01-30T10:09:02;101637.91;;;8.51;100.00
17383;BME280;8809;51.892;8.384;2024-01-30T10:11:30;101637.59;;;8.60;100.00
17383;BME280;8809;51.892;8.384;2024-01-30T10:13:59;101636.81;;;8.74;100.00
17383;BME280;8809;51.892;8.384;2024-01-30T10:16:27;101636.72;;;8.72;100.00
17383;BME280;8809;51.892;8.384;2024-01-30T10:18:54;101640.72;;;8.80;100.00
17383;BME280;8809;51.892;8.384;2024-01-30T10:21:23;101639.59;;;8.90;100.00
17383;BME280;8809;51.892;8.384;2024-01-30T10:23:52;101645.78;;;9.05;100.00
17383;BME280;8809;51.892;8.384;2024-01-30T10:26:21;101643.69;;;9.13;100.00
17383;BME280;8809;51.892;8.384;2024-01-30T10:28:48;101651.47;;;9.26;100.00
17383;BME280;8809;51.892;8.384;2024-01-30T10:31:16;101650.75;;;9.42;100.00
17383;BME280;8809;51.892;8.384;2024-01-30T10:33:44;101652.69;;;9.59;100.00
17383;BME280;8809;51.892;8.384;2024-01-30T10:36:14;101648.59;;;9.77;100.00
17383;BME280;8809;51.892;8.384;2024-01-30T10:38:43;101651.22;;;9.92;100.00
17383;BME280;8809;51.892;8.384;2024-01-30T10:41:18;101650.38;;;10.06;100.00
17383;BME280;8809;51.892;8.384;2024-01-30T10:43:54;101651.22;;;10.20;100.00
17383;BME280;8809;51.892;8.384;2024-01-30T10:46:28;101649.16;;;10.29;100.00
17383;BME280;8809;51.892;8.384;2024-01-30T10:48:58;101643.97;;;10.44;100.00
17383;BME280;8809;51.892;8.384;2024-01-30T10:51:26;101647.91;;;10.52;100.00
17383;BME280;8809;51.892;8.384;2024-01-30T10:53:55;101645.47;;;10.69;100.00
17383;BME280;8809;51.892;8.384;2024-01-30T10:56:25;101641.66;;;10.79;100.00
17383;BME280;8809;51.892;8.384;2024-01-30T10:58:53;101639.16;;;10.81;100.00
17383;BME280;8809;51.892;8.384;2024-01-30T11:01:22;101642.94;;;10.86;100.00
17383;BME280;8809;51.892;8.384;2024-01-30T11:03:51;101637.88;;;10.89;100.00
17383;BME280;8809;51.892;8.384;2024-01-30T11:06:18;101632.81;;;10.92;100.00
17383;BME280;8809;51.892;8.384;2024-01-30T11:09:00;101634.06;;;10.98;100.00
17383;BME280;8809;51.892;8.384;2024-01-30T11:11:31;101633.91;;;10.95;100.00
17383;BME280;8809;51.892;8.384;2024-01-30T11:14:00;101636.66;;;10.98;100.00
17383;BME280;8809;51.892;8.384;2024-01-30T11:16:31;101643.06;;;11.03;100.00
17383;BME280;8809;51.892;8.384;2024-01-30T11:19:00;101634.66;;;11.09;100.00
17383;BME280;8809;51.892;8.384;2024-01-30T11:21:28;101631.56;;;11.16;100.00
17383;BME280;8809;51.892;8.384;2024-01-30T11:23:57;101633.88;;;11.26;100.00
17383;BME280;8809;51.892;8.384;2024-01-30T11:26:28;101636.09;;;11.35;100.00
17383;BME280;8809;51.892;8.384;2024-01-30T11:28:57;101642.00;;;11.47;100.00
17383;BME280;8809;51.892;8.384;2024-01-30T11:31:25;101643.22;;;11.53;100.00
17383;BME280;8809;51.892;8.384;2024-01-30T11:33:53;101649.78;;;11.62;100.00
17383;BME280;8809;51.892;8.384;2024-01-30T11:36:25;101646.19;;;11.60;100.00
17383;BME280;8809;51.892;8.384;2024-01-30T11:38:54;101639.00;;;11.72;100.00
17383;BME280;8809;51.892;8.384;2024-01-30T11:41:22;101641.53;;;11.70;100.00
17383;BME280;8809;51.892;8.384;2024-01-30T11:43:54;101643.47;;;11.74;100.00
17383;BME280;8809;51.892;8.384;2024-01-30T11:46:24;101638.72;;;11.82;100.00
17383;BME280;8809;51.892;8.384;2024-01-30T11:48:52;101637.41;;;11.90;100.00
17383;BME280;8809;51.892;8.384;2024-01-30T11:51:19;101632.97;;;12.05;100.00
17383;BME280;8809;51.892;8.384;2024-01-30T11:53:49;101630.34;;;12.05;100.00
17383;BME280;8809;51.892;8.384;2024-01-30T11:56:17;101621.97;;;12.12;100.00
17383;BME280;8809;51.892;8.384;2024-01-30T11:58:45;101627.22;;;12.12;100.00
17383;BME280;8809;51.892;8.384;2024-01-30T12:01:12;101636.06;;;12.14;100.00
17383;BME280;8809;51.892;8.384;2024-01-30T12:03:40;101636.78;;;12.12;100.00
17383;BME280;8809;51.892;8.384;2024-01-30T12:06:09;101630.91;;;12.16;100.00
17383;BME280;8809;51.892;8.384;2024-01-30T12:08:37;101632.28;;;12.25;100.00
17383;BME280;8809;51.892;8.384;2024-01-30T12:11:06;101630.94;;;12.34;100.00
17383;BME280;8809;51.892;8.384;2024-01-30T12:13:35;101633.25;;;12.27;100.00
17383;BME280;8809;51.892;8.384;2024-01-30T12:16:04;101627.69;;;12.21;100.00
17383;BME280;8809;51.892;8.384;2024-01-30T12:18:32;101633.78;;;12.20;100.00
17383;BME280;8809;51.892;8.384;2024-01-30T12:21:01;101633.91;;;12.23;100.00
17383;BME280;8809;51.892;8.384;2024-01-30T12:23:29;101636.78;;;12.28;100.00
17383;BME280;8809;51.892;8.384;2024-01-30T12:25:56;101641.03;;;12.26;100.00
17383;BME280;8809;51.892;8.384;2024-01-30T12:28:29;101642.13;;;12.31;100.00
17383;BME280;8809;51.892;8.384;2024-01-30T12:31:01;101647.47;;;12.50;100.00
17383;BME280;8809;51.892;8.384;2024-01-30T12:33:32;101638.06;;;12.54;100.00
17383;BME280;8809;51.892;8.384;2024-01-30T12:36:03;101640.16;;;12.61;100.00
17383;BME280;8809;51.892;8.384;2024-01-30T12:38:33;101652.34;;;12.60;100.00
17383;BME280;8809;51.892;8.384;2024-01-30T12:41:02;101647.28;;;12.63;100.00
17383;BME280;8809;51.892;8.384;2024-01-30T12:43:30;101646.47;;;12.64;100.00
17383;BME280;8809;51.892;8.384;2024-01-30T12:45:58;101658.66;;;12.64;100.00
17383;BME280;8809;51.892;8.384;2024-01-30T12:48:34;101656.94;;;12.64;100.00
17383;BME280;8809;51.892;8.384;2024-01-30T12:51:03;101653.97;;;12.75;100.00
17383;BME280;8809;51.892;8.384;2024-01-30T12:53:31;101655.84;;;12.77;100.00
17383;BME280;8809;51.892;8.384;2024-01-30T12:55:58;101643.03;;;12.66;100.00
17383;BME280;8809;51.892;8.384;2024-01-30T12:58:26;101645.56;;;12.64;100.00
17383;BME280;8809;51.892;8.384;2024-01-30T13:00:53;101646.47;;;12.64;100.00
17383;BME280;8809;51.892;8.384;2024-01-30T13:03:22;101646.22;;;12.60;100.00